sensor_id;sensor_type;location;lat;lon;timestamp;P1;durP1;ratioP1;P2;durP2;ratioP2
29686;SDS011;16599;47.078;15.536;2022-09-17T00:01:07;12.43;;;5.85;;
29686;SDS011;16599;47.078;15.536;2022-09-17T00:03:40;10.00;;;5.88;;
29686;SDS011;16599;47.078;15.536;2022-09-17T00:06:07;9.23;;;6.15;;
29686;SDS011;16599;47.078;15.536;2022-09-17T00:08:37;11.07;;;5.90;;
29686;SDS011;16599;47.078;15.536;2022-09-17T00:11:10;11.80;;;5.63;;
29686;SDS011;16599;47.078;15.536;2022-09-17T00:13:39;11.35;;;6.60;;
29686;SDS011;16599;47.078;15.536;2022-09-17T00:16:07;8.07;;;6.20;;
29686;SDS011;16599;47.078;15.536;2022-09-17T00:18:35;11.25;;;6.28;;
29686;SDS011;16599;47.078;15.536;2022-09-17T00:21:06;11.88;;;6.38;;
29686;SDS011;16599;47.078;15.536;2022-09-17T00:23:40;9.88;;;6.13;;
29686;SDS011;16599;47.078;15.536;2022-09-17T00:26:08;12.43;;;6.13;;
29686;SDS011;16599;47.078;15.536;2022-09-17T00:28:34;14.35;;;6.75;;
29686;SDS011;16599;47.078;15.536;2022-09-17T00:31:05;15.43;;;8.52;;
29686;SDS011;16599;47.078;15.536;2022-09-17T00:33:33;11.35;;;8.23;;
29686;SDS011;16599;47.078;15.536;2022-09-17T00:36:01;13.60;;;8.88;;
29686;SDS011;16599;47.078;15.536;2022-09-17T00:38:29;18.85;;;9.05;;
29686;SDS011;16599;47.078;15.536;2022-09-17T00:40:56;11.90;;;8.63;;
29686;SDS011;16599;47.078;15.536;2022-09-17T00:48:59;14.25;;;8.60;;
29686;SDS011;16599;47.078;15.536;2022-09-17T00:51:33;10.48;;;7.93;;
29686;SDS011;16599;47.078;15.536;2022-09-17T00:54:04;12.32;;;8.30;;
29686;SDS011;16599;47.078;15.536;2022-09-17T00:56:34;11.82;;;8.77;;
29686;SDS011;16599;47.078;15.536;2022-09-17T00:59:03;12.55;;;8.25;;
29686;SDS011;16599;47.078;15.536;2022-09-17T01:01:31;12.55;;;8.93;;
29686;SDS011;16599;47.078;15.536;2022-09-17T01:03:58;12.68;;;8.55;;
29686;SDS011;16599;47.078;15.536;2022-09-17T01:23:52;14.23;;;9.57;;
29686;SDS011;16599;47.078;15.536;2022-09-17T01:31:50;12.18;;;8.52;;
29686;SDS011;16599;47.078;15.536;2022-09-17T01:34:27;12.68;;;9.63;;
29686;SDS011;16599;47.078;15.536;2022-09-17T01:39:44;15.60;;;10.65;;
29686;SDS011;16599;47.078;15.536;2022-09-17T01:42:24;14.73;;;9.95;;
29686;SDS011;16599;47.078;15.536;2022-09-17T01:47:49;16.20;;;10.68;;
29686;SDS011;16599;47.078;15.536;2022-09-17T01:50:22;13.30;;;9.48;;
29686;SDS011;16599;47.078;15.536;2022-09-17T01:53:03;14.15;;;9.75;;
29686;SDS011;16599;47.078;15.536;2022-09-17T01:55:34;15.10;;;10.23;;
29686;SDS011;16599;47.078;15.536;2022-09-17T02:00:38;24.20;;;11.70;;
29686;SDS011;16599;47.078;15.536;2022-09-17T02:03:09;16.70;;;11.20;;
29686;SDS011;16599;47.078;15.536;2022-09-17T02:05:49;14.50;;;10.25;;
29686;SDS011;16599;47.078;15.536;2022-09-17T02:08:49;17.05;;;10.25;;
29686;SDS011;16599;47.078;15.536;2022-09-17T02:11:20;16.38;;;10.60;;
29686;SDS011;16599;47.078;15.536;2022-09-17T02:13:57;15.48;;;9.52;;
29686;SDS011;16599;47.078;15.536;2022-09-17T02:16:29;12.82;;;9.20;;
29686;SDS011;16599;47.078;15.536;2022-09-17T02:19:19;12.50;;;8.98;;
29686;SDS011;16599;47.078;15.536;2022-09-17T02:25:04;15.05;;;9.55;;
29686;SDS011;16599;47.078;15.536;2022-09-17T02:30:14;14.57;;;8.63;;
29686;SDS011;16599;47.078;15.536;2022-09-17T02:32:41;14.95;;;9.32;;
29686;SDS011;16599;47.078;15.536;2022-09-17T02:35:09;18.65;;;10.13;;
29686;SDS011;16599;47.078;15.536;2022-09-17T02:37:42;14.55;;;10.05;;
29686;SDS011;16599;47.078;15.536;2022-09-17T02:40:09;16.15;;;9.75;;
29686;SDS011;16599;47.078;15.536;2022-09-17T02:48:33;14.60;;;9.60;;
29686;SDS011;16599;47.078;15.536;2022-09-17T02:51:41;16.52;;;8.70;;
29686;SDS011;16599;47.078;15.536;2022-09-17T03:02:01;16.40;;;10.10;;
29686;SDS011;16599;47.078;15.536;2022-09-17T03:04:34;16.20;;;9.80;;
29686;SDS011;16599;47.078;15.536;2022-09-17T03:07:07;15.82;;;10.75;;
29686;SDS011;16599;47.078;15.536;2022-09-17T03:09:37;18.13;;;11.30;;
29686;SDS011;16599;47.078;15.536;2022-09-17T03:12:04;18.35;;;10.00;;
29686;SDS011;16599;47.078;15.536;2022-09-17T03:14:31;15.10;;;9.27;;
29686;SDS011;16599;47.078;15.536;2022-09-17T03:16:58;13.60;;;9.38;;
29686;SDS011;16599;47.078;15.536;2022-09-17T03:19:25;14.80;;;9.15;;
29686;SDS011;16599;47.078;15.536;2022-09-17T03:21:53;15.88;;;9.63;;
29686;SDS011;16599;47.078;15.536;2022-09-17T03:24:20;16.83;;;9.50;;
29686;SDS011;16599;47.078;15.536;2022-09-17T03:26:47;16.23;;;9.27;;
29686;SDS011;16599;47.078;15.536;2022-09-17T03:29:14;15.82;;;8.95;;
29686;SDS011;16599;47.078;15.536;2022-09-17T03:31:42;16.88;;;9.40;;
29686;SDS011;16599;47.078;15.536;2022-09-17T03:34:08;17.23;;;9.50;;
29686;SDS011;16599;47.078;15.536;2022-09-17T03:36:35;12.80;;;8.75;;
29686;SDS011;16599;47.078;15.536;2022-09-17T03:39:02;13.43;;;8.68;;
29686;SDS011;16599;47.078;15.536;2022-09-17T03:41:29;15.48;;;8.63;;
29686;SDS011;16599;47.078;15.536;2022-09-17T03:43:56;15.35;;;8.43;;
29686;SDS011;16599;47.078;15.536;2022-09-17T03:46:23;14.93;;;9.25;;
29686;SDS011;16599;47.078;15.536;2022-09-17T03:48:50;17.35;;;8.50;;
29686;SDS011;16599;47.078;15.536;2022-09-17T03:51:16;22.30;;;9.23;;
29686;SDS011;16599;47.078;15.536;2022-09-17T03:53:43;22.67;;;9.80;;
29686;SDS011;16599;47.078;15.536;2022-09-17T03:56:10;14.38;;;8.88;;
29686;SDS011;16599;47.078;15.536;2022-09-17T03:58:37;16.77;;;9.05;;
29686;SDS011;16599;47.078;15.536;2022-09-17T04:01:04;13.02;;;8.57;;
29686;SDS011;16599;47.078;15.536;2022-09-17T04:03:31;16.02;;;9.10;;
29686;SDS011;16599;47.078;15.536;2022-09-17T04:05:58;18.45;;;8.57;;
29686;SDS011;16599;47.078;15.536;2022-09-17T04:08:25;16.73;;;9.63;;
29686;SDS011;16599;47.078;15.536;2022-09-17T04:10:52;15.45;;;8.80;;
29686;SDS011;16599;47.078;15.536;2022-09-17T04:13:19;14.80;;;9.80;;
29686;SDS011;16599;47.078;15.536;2022-09-17T04:15:46;13.02;;;9.43;;
29686;SDS011;16599;47.078;15.536;2022-09-17T04:18:14;15.80;;;9.68;;
29686;SDS011;16599;47.078;15.536;2022-09-17T04:20:41;15.50;;;9.35;;
29686;SDS011;16599;47.078;15.536;2022-09-17T04:23:10;17.95;;;9.23;;
29686;SDS011;16599;47.078;15.536;2022-09-17T04:25:37;17.75;;;8.93;;
29686;SDS011;16599;47.078;15.536;2022-09-17T04:28:04;16.40;;;9.88;;
29686;SDS011;16599;47.078;15.536;2022-09-17T04:30:31;16.75;;;9.55;;
29686;SDS011;16599;47.078;15.536;2022-09-17T04:32:58;14.68;;;8.90;;
29686;SDS011;16599;47.078;15.536;2022-09-17T04:35:25;17.17;;;9.82;;
29686;SDS011;16599;47.078;15.536;2022-09-17T04:37:52;12.40;;;8.70;;
29686;SDS011;16599;47.078;15.536;2022-09-17T04:40:21;14.63;;;8.70;;
29686;SDS011;16599;47.078;15.536;2022-09-17T04:42:52;15.88;;;8.70;;
29686;SDS011;16599;47.078;15.536;2022-09-17T04:45:20;14.05;;;9.55;;
29686;SDS011;16599;47.078;15.536;2022-09-17T04:47:47;13.82;;;8.52;;
29686;SDS011;16599;47.078;15.536;2022-09-17T04:50:19;15.90;;;8.90;;
29686;SDS011;16599;47.078;15.536;2022-09-17T04:52:47;12.60;;;8.18;;
29686;SDS011;16599;47.078;15.536;2022-09-17T04:55:14;15.43;;;8.73;;
29686;SDS011;16599;47.078;15.536;2022-09-17T04:57:45;16.08;;;8.98;;
29686;SDS011;16599;47.078;15.536;2022-09-17T05:00:16;21.83;;;11.98;;
29686;SDS011;16599;47.078;15.536;2022-09-17T05:02:45;18.85;;;10.82;;
29686;SDS011;16599;47.078;15.536;2022-09-17T05:05:13;17.85;;;11.23;;
29686;SDS011;16599;47.078;15.536;2022-09-17T05:07:41;17.60;;;10.70;;
29686;SDS011;16599;47.078;15.536;2022-09-17T05:10:08;17.63;;;10.73;;
29686;SDS011;16599;47.078;15.536;2022-09-17T05:12:36;15.32;;;10.18;;
29686;SDS011;16599;47.078;15.536;2022-09-17T05:15:03;16.33;;;9.82;;
29686;SDS011;16599;47.078;15.536;2022-09-17T05:17:31;13.93;;;9.30;;
29686;SDS011;16599;47.078;15.536;2022-09-17T05:19:58;19.08;;;9.00;;
29686;SDS011;16599;47.078;15.536;2022-09-17T05:22:24;14.50;;;9.27;;
29686;SDS011;16599;47.078;15.536;2022-09-17T05:24:51;14.10;;;9.23;;
29686;SDS011;16599;47.078;15.536;2022-09-17T05:27:18;16.95;;;9.38;;
29686;SDS011;16599;47.078;15.536;2022-09-17T05:29:45;13.98;;;8.85;;
29686;SDS011;16599;47.078;15.536;2022-09-17T05:32:11;16.80;;;8.98;;
29686;SDS011;16599;47.078;15.536;2022-09-17T05:34:38;20.08;;;9.90;;
29686;SDS011;16599;47.078;15.536;2022-09-17T05:37:08;16.20;;;9.23;;
29686;SDS011;16599;47.078;15.536;2022-09-17T05:39:36;14.98;;;10.20;;
29686;SDS011;16599;47.078;15.536;2022-09-17T05:42:02;17.65;;;11.65;;
29686;SDS011;16599;47.078;15.536;2022-09-17T05:44:29;17.95;;;11.35;;
29686;SDS011;16599;47.078;15.536;2022-09-17T05:46:56;17.20;;;11.00;;
29686;SDS011;16599;47.078;15.536;2022-09-17T05:49:24;17.55;;;11.30;;
29686;SDS011;16599;47.078;15.536;2022-09-17T05:51:51;15.57;;;11.10;;
29686;SDS011;16599;47.078;15.536;2022-09-17T05:54:17;15.10;;;10.63;;
29686;SDS011;16599;47.078;15.536;2022-09-17T05:56:44;18.42;;;10.70;;
29686;SDS011;16599;47.078;15.536;2022-09-17T05:59:11;18.15;;;13.13;;
29686;SDS011;16599;47.078;15.536;2022-09-17T06:01:38;28.92;;;18.55;;
29686;SDS011;16599;47.078;15.536;2022-09-17T06:04:05;24.40;;;16.35;;
29686;SDS011;16599;47.078;15.536;2022-09-17T06:06:31;18.45;;;12.80;;
29686;SDS011;16599;47.078;15.536;2022-09-17T06:08:58;21.90;;;12.00;;
29686;SDS011;16599;47.078;15.536;2022-09-17T06:11:25;20.00;;;12.57;;
29686;SDS011;16599;47.078;15.536;2022-09-17T06:13:53;21.92;;;13.77;;
29686;SDS011;16599;47.078;15.536;2022-09-17T06:16:20;19.80;;;13.48;;
29686;SDS011;16599;47.078;15.536;2022-09-17T06:18:48;19.48;;;13.07;;
29686;SDS011;16599;47.078;15.536;2022-09-17T06:21:18;20.25;;;13.10;;
29686;SDS011;16599;47.078;15.536;2022-09-17T06:23:46;21.40;;;12.70;;
29686;SDS011;16599;47.078;15.536;2022-09-17T06:26:13;19.15;;;12.82;;
29686;SDS011;16599;47.078;15.536;2022-09-17T06:28:40;16.83;;;11.50;;
29686;SDS011;16599;47.078;15.536;2022-09-17T06:31:08;16.35;;;11.60;;
29686;SDS011;16599;47.078;15.536;2022-09-17T06:33:36;18.05;;;11.13;;
29686;SDS011;16599;47.078;15.536;2022-09-17T06:36:07;17.67;;;10.38;;
29686;SDS011;16599;47.078;15.536;2022-09-17T06:38:39;15.05;;;10.23;;
29686;SDS011;16599;47.078;15.536;2022-09-17T06:41:06;19.10;;;12.23;;
29686;SDS011;16599;47.078;15.536;2022-09-17T06:43:34;11.70;;;9.45;;
29686;SDS011;16599;47.078;15.536;2022-09-17T06:46:01;12.82;;;9.30;;
29686;SDS011;16599;47.078;15.536;2022-09-17T06:48:34;16.50;;;10.02;;
29686;SDS011;16599;47.078;15.536;2022-09-17T06:51:07;14.77;;;9.30;;
29686;SDS011;16599;47.078;15.536;2022-09-17T06:53:35;19.17;;;9.93;;
29686;SDS011;16599;47.078;15.536;2022-09-17T06:56:03;12.98;;;9.30;;
29686;SDS011;16599;47.078;15.536;2022-09-17T06:58:32;11.40;;;9.40;;
29686;SDS011;16599;47.078;15.536;2022-09-17T07:01:02;16.63;;;10.07;;
29686;SDS011;16599;47.078;15.536;2022-09-17T07:03:30;11.90;;;9.00;;
29686;SDS011;16599;47.078;15.536;2022-09-17T07:05:57;14.18;;;9.18;;
29686;SDS011;16599;47.078;15.536;2022-09-17T07:08:24;17.95;;;9.60;;
29686;SDS011;16599;47.078;15.536;2022-09-17T07:10:55;13.40;;;9.43;;
29686;SDS011;16599;47.078;15.536;2022-09-17T07:13:23;12.13;;;8.57;;
29686;SDS011;16599;47.078;15.536;2022-09-17T07:15:57;11.88;;;8.45;;
29686;SDS011;16599;47.078;15.536;2022-09-17T07:18:26;9.57;;;8.27;;
29686;SDS011;16599;47.078;15.536;2022-09-17T07:20:54;12.18;;;8.63;;
29686;SDS011;16599;47.078;15.536;2022-09-17T07:23:23;13.73;;;8.35;;
29686;SDS011;16599;47.078;15.536;2022-09-17T07:25:53;11.05;;;8.82;;
29686;SDS011;16599;47.078;15.536;2022-09-17T07:28:22;12.93;;;9.37;;
29686;SDS011;16599;47.078;15.536;2022-09-17T07:30:50;12.23;;;9.27;;
29686;SDS011;16599;47.078;15.536;2022-09-17T07:33:18;14.15;;;9.38;;
29686;SDS011;16599;47.078;15.536;2022-09-17T07:35:52;41.95;;;28.88;;
29686;SDS011;16599;47.078;15.536;2022-09-17T07:38:20;14.05;;;10.25;;
29686;SDS011;16599;47.078;15.536;2022-09-17T07:43:41;16.95;;;12.98;;
29686;SDS011;16599;47.078;15.536;2022-09-17T07:46:12;28.38;;;15.02;;
29686;SDS011;16599;47.078;15.536;2022-09-17T07:48:41;18.13;;;12.50;;
29686;SDS011;16599;47.078;15.536;2022-09-17T07:51:13;15.93;;;11.82;;
29686;SDS011;16599;47.078;15.536;2022-09-17T07:53:41;13.02;;;10.10;;
29686;SDS011;16599;47.078;15.536;2022-09-17T07:56:08;20.33;;;10.38;;
29686;SDS011;16599;47.078;15.536;2022-09-17T07:58:37;14.65;;;10.30;;
29686;SDS011;16599;47.078;15.536;2022-09-17T08:01:05;12.45;;;9.70;;
29686;SDS011;16599;47.078;15.536;2022-09-17T08:03:34;19.45;;;11.10;;
29686;SDS011;16599;47.078;15.536;2022-09-17T08:06:08;17.80;;;10.55;;
29686;SDS011;16599;47.078;15.536;2022-09-17T08:08:37;20.73;;;12.60;;
29686;SDS011;16599;47.078;15.536;2022-09-17T08:13:36;16.55;;;13.10;;
29686;SDS011;16599;47.078;15.536;2022-09-17T08:16:04;14.48;;;10.70;;
29686;SDS011;16599;47.078;15.536;2022-09-17T08:18:33;15.35;;;11.55;;
29686;SDS011;16599;47.078;15.536;2022-09-17T08:21:01;17.75;;;11.82;;
29686;SDS011;16599;47.078;15.536;2022-09-17T08:23:30;15.80;;;11.90;;
29686;SDS011;16599;47.078;15.536;2022-09-17T08:25:59;53.63;;;32.00;;
29686;SDS011;16599;47.078;15.536;2022-09-17T08:28:27;267.83;;;144.25;;
29686;SDS011;16599;47.078;15.536;2022-09-17T08:31:00;154.35;;;87.05;;
29686;SDS011;16599;47.078;15.536;2022-09-17T08:33:34;214.45;;;107.70;;
29686;SDS011;16599;47.078;15.536;2022-09-17T08:36:03;67.10;;;40.58;;
29686;SDS011;16599;47.078;15.536;2022-09-17T08:38:32;31.33;;;23.75;;
29686;SDS011;16599;47.078;15.536;2022-09-17T08:43:47;29.73;;;19.70;;
29686;SDS011;16599;47.078;15.536;2022-09-17T08:46:23;19.25;;;13.35;;
29686;SDS011;16599;47.078;15.536;2022-09-17T08:54:25;18.42;;;12.35;;
29686;SDS011;16599;47.078;15.536;2022-09-17T09:00:05;20.23;;;14.88;;
29686;SDS011;16599;47.078;15.536;2022-09-17T09:10:51;20.17;;;13.60;;
29686;SDS011;16599;47.078;15.536;2022-09-17T09:13:21;17.63;;;14.80;;
29686;SDS011;16599;47.078;15.536;2022-09-17T09:16:05;23.83;;;14.27;;
29686;SDS011;16599;47.078;15.536;2022-09-17T09:18:36;53.22;;;36.85;;
29686;SDS011;16599;47.078;15.536;2022-09-17T09:23:56;51.08;;;36.00;;
29686;SDS011;16599;47.078;15.536;2022-09-17T09:27:37;18.40;;;13.63;;
29686;SDS011;16599;47.078;15.536;2022-09-17T09:32:27;13.55;;;10.30;;
29686;SDS011;16599;47.078;15.536;2022-09-17T09:35:21;13.32;;;9.65;;
29686;SDS011;16599;47.078;15.536;2022-09-17T09:38:03;11.07;;;9.18;;
29686;SDS011;16599;47.078;15.536;2022-09-17T09:40:41;14.60;;;7.65;;
29686;SDS011;16599;47.078;15.536;2022-09-17T09:57:14;11.48;;;6.82;;
29686;SDS011;16599;47.078;15.536;2022-09-17T09:59:43;11.85;;;6.70;;
29686;SDS011;16599;47.078;15.536;2022-09-17T10:02:10;8.27;;;6.20;;
29686;SDS011;16599;47.078;15.536;2022-09-17T10:04:37;8.43;;;6.53;;
29686;SDS011;16599;47.078;15.536;2022-09-17T10:07:08;9.85;;;6.68;;
29686;SDS011;16599;47.078;15.536;2022-09-17T10:09:38;10.70;;;7.00;;
29686;SDS011;16599;47.078;15.536;2022-09-17T10:14:39;6.97;;;5.90;;
29686;SDS011;16599;47.078;15.536;2022-09-17T10:22:34;17.98;;;11.48;;
29686;SDS011;16599;47.078;15.536;2022-09-17T10:25:05;9.85;;;6.40;;
29686;SDS011;16599;47.078;15.536;2022-09-17T10:28:01;27.92;;;12.07;;
29686;SDS011;16599;47.078;15.536;2022-09-17T10:30:30;11.80;;;5.50;;
29686;SDS011;16599;47.078;15.536;2022-09-17T10:33:09;6.13;;;4.18;;
29686;SDS011;16599;47.078;15.536;2022-09-17T10:39:19;3.03;;;2.53;;
29686;SDS011;16599;47.078;15.536;2022-09-17T10:42:15;6.15;;;1.35;;
29686;SDS011;16599;47.078;15.536;2022-09-17T10:44:56;3.58;;;1.75;;
29686;SDS011;16599;47.078;15.536;2022-09-17T10:47:25;1.40;;;1.15;;
29686;SDS011;16599;47.078;15.536;2022-09-17T10:50:15;1.90;;;1.25;;
29686;SDS011;16599;47.078;15.536;2022-09-17T10:52:47;5.53;;;2.35;;
29686;SDS011;16599;47.078;15.536;2022-09-17T10:55:29;6.05;;;1.88;;
29686;SDS011;16599;47.078;15.536;2022-09-17T11:17:26;4.07;;;2.42;;
29686;SDS011;16599;47.078;15.536;2022-09-17T11:26:40;1.38;;;1.10;;
29686;SDS011;16599;47.078;15.536;2022-09-17T11:29:30;3.60;;;1.10;;
29686;SDS011;16599;47.078;15.536;2022-09-17T11:50:49;1.55;;;1.17;;
29686;SDS011;16599;47.078;15.536;2022-09-17T12:11:12;4.63;;;3.10;;
29686;SDS011;16599;47.078;15.536;2022-09-17T12:13:49;3.38;;;1.55;;
29686;SDS011;16599;47.078;15.536;2022-09-17T12:19:12;3.25;;;1.63;;
29686;SDS011;16599;47.078;15.536;2022-09-17T12:21:41;2.70;;;1.80;;
29686;SDS011;16599;47.078;15.536;2022-09-17T12:24:24;2.30;;;1.45;;
29686;SDS011;16599;47.078;15.536;2022-09-17T12:32:56;3.47;;;1.45;;
29686;SDS011;16599;47.078;15.536;2022-09-17T12:50:07;4.97;;;0.73;;
29686;SDS011;16599;47.078;15.536;2022-09-17T13:43:21;4.57;;;1.00;;
29686;SDS011;16599;47.078;15.536;2022-09-17T13:48:25;8.50;;;1.00;;
29686;SDS011;16599;47.078;15.536;2022-09-17T14:09:04;4.45;;;1.65;;
29686;SDS011;16599;47.078;15.536;2022-09-17T14:12:20;4.65;;;2.25;;
29686;SDS011;16599;47.078;15.536;2022-09-17T14:33:38;5.15;;;1.60;;
29686;SDS011;16599;47.078;15.536;2022-09-17T14:39:51;5.43;;;2.53;;
29686;SDS011;16599;47.078;15.536;2022-09-17T14:53:42;2.92;;;1.67;;
29686;SDS011;16599;47.078;15.536;2022-09-17T15:07:16;8.75;;;1.63;;
29686;SDS011;16599;47.078;15.536;2022-09-17T15:09:47;8.35;;;1.77;;
29686;SDS011;16599;47.078;15.536;2022-09-17T15:16:25;6.57;;;1.88;;
29686;SDS011;16599;47.078;15.536;2022-09-17T15:21:45;9.05;;;1.55;;
29686;SDS011;16599;47.078;15.536;2022-09-17T16:12:03;5.22;;;3.47;;
29686;SDS011;16599;47.078;15.536;2022-09-17T16:14:30;8.57;;;2.90;;
29686;SDS011;16599;47.078;15.536;2022-09-17T16:43:17;2.85;;;1.20;;
29686;SDS011;16599;47.078;15.536;2022-09-17T17:08:56;1.83;;;0.50;;
29686;SDS011;16599;47.078;15.536;2022-09-17T17:15:18;0.55;;;0.32;;
